sensor_id;sensor_type;location;lat;lon;timestamp;P1;durP1;ratioP1;P2;durP2;ratioP2
1747;SDS011;871;47.034;15.394;2022-10-31T05:02:33;35.37;;;8.70;;
1747;SDS011;871;47.034;15.394;2022-10-31T05:04:59;34.40;;;10.57;;
1747;SDS011;871;47.034;15.394;2022-10-31T05:07:25;34.53;;;8.60;;
1747;SDS011;871;47.034;15.394;2022-10-31T05:09:51;33.13;;;10.47;;
1747;SDS011;871;47.034;15.394;2022-10-31T05:12:17;36.03;;;10.73;;
1747;SDS011;871;47.034;15.394;2022-10-31T05:14:43;34.00;;;10.80;;
1747;SDS011;871;47.034;15.394;2022-10-31T05:17:09;31.80;;;10.30;;
1747;SDS011;871;47.034;15.394;2022-10-31T05:19:35;36.20;;;10.30;;
1747;SDS011;871;47.034;15.394;2022-10-31T05:22:02;36.37;;;11.37;;
1747;SDS011;871;47.034;15.394;2022-10-31T05:24:29;35.37;;;11.00;;
1747;SDS011;871;47.034;15.394;2022-10-31T05:26:55;36.00;;;10.73;;
1747;SDS011;871;47.034;15.394;2022-10-31T05:29:21;34.67;;;10.73;;
1747;SDS011;871;47.034;15.394;2022-10-31T05:31:47;34.37;;;11.60;;
1747;SDS011;871;47.034;15.394;2022-10-31T05:34:14;34.20;;;11.90;;
1747;SDS011;871;47.034;15.394;2022-10-31T05:36:40;35.83;;;11.60;;
1747;SDS011;871;47.034;15.394;2022-10-31T05:39:06;35.37;;;11.53;;
1747;SDS011;871;47.034;15.394;2022-10-31T05:41:32;34.23;;;11.10;;
1747;SDS011;871;47.034;15.394;2022-10-31T05:43:58;36.90;;;11.83;;
1747;SDS011;871;47.034;15.394;2022-10-31T05:46:24;33.70;;;11.23;;
1747;SDS011;871;47.034;15.394;2022-10-31T05:48:50;35.90;;;10.90;;
1747;SDS011;871;47.034;15.394;2022-10-31T05:51:16;34.10;;;10.40;;
1747;SDS011;871;47.034;15.394;2022-10-31T05:53:42;38.60;;;10.83;;
1747;SDS011;871;47.034;15.394;2022-10-31T05:56:08;43.07;;;11.10;;
1747;SDS011;871;47.034;15.394;2022-10-31T05:58:34;37.57;;;11.70;;
1747;SDS011;871;47.034;15.394;2022-10-31T06:01:00;41.23;;;11.83;;
1747;SDS011;871;47.034;15.394;2022-10-31T06:03:26;40.60;;;12.50;;
1747;SDS011;871;47.034;15.394;2022-10-31T06:05:52;39.53;;;11.30;;
1747;SDS011;871;47.034;15.394;2022-10-31T06:08:18;40.87;;;12.37;;
1747;SDS011;871;47.034;15.394;2022-10-31T06:10:45;39.57;;;12.20;;
1747;SDS011;871;47.034;15.394;2022-10-31T06:13:11;41.20;;;11.97;;
1747;SDS011;871;47.034;15.394;2022-10-31T06:15:37;42.37;;;12.13;;
1747;SDS011;871;47.034;15.394;2022-10-31T06:18:04;41.00;;;12.20;;
1747;SDS011;871;47.034;15.394;2022-10-31T06:20:31;41.23;;;12.43;;
1747;SDS011;871;47.034;15.394;2022-10-31T06:22:57;41.90;;;12.93;;
1747;SDS011;871;47.034;15.394;2022-10-31T06:25:23;41.00;;;11.20;;
1747;SDS011;871;47.034;15.394;2022-10-31T06:27:49;38.10;;;11.87;;
1747;SDS011;871;47.034;15.394;2022-10-31T06:30:15;39.83;;;11.87;;
1747;SDS011;871;47.034;15.394;2022-10-31T06:32:42;43.80;;;12.70;;
1747;SDS011;871;47.034;15.394;2022-10-31T06:35:08;38.33;;;11.27;;
1747;SDS011;871;47.034;15.394;2022-10-31T06:37:34;37.53;;;11.03;;
1747;SDS011;871;47.034;15.394;2022-10-31T06:40:01;44.73;;;12.47;;
1747;SDS011;871;47.034;15.394;2022-10-31T06:42:27;41.77;;;12.10;;
1747;SDS011;871;47.034;15.394;2022-10-31T06:44:53;39.83;;;12.83;;
1747;SDS011;871;47.034;15.394;2022-10-31T06:47:19;39.90;;;11.20;;
1747;SDS011;871;47.034;15.394;2022-10-31T06:49:45;39.47;;;11.80;;
1747;SDS011;871;47.034;15.394;2022-10-31T06:52:11;37.77;;;11.23;;
1747;SDS011;871;47.034;15.394;2022-10-31T06:54:37;41.57;;;12.00;;
1747;SDS011;871;47.034;15.394;2022-10-31T06:57:03;43.37;;;13.33;;
1747;SDS011;871;47.034;15.394;2022-10-31T06:59:30;41.90;;;12.67;;
1747;SDS011;871;47.034;15.394;2022-10-31T07:01:57;37.07;;;11.07;;
1747;SDS011;871;47.034;15.394;2022-10-31T07:04:23;38.83;;;12.90;;
1747;SDS011;871;47.034;15.394;2022-10-31T07:06:52;39.90;;;12.47;;
1747;SDS011;871;47.034;15.394;2022-10-31T07:09:18;38.33;;;11.70;;
1747;SDS011;871;47.034;15.394;2022-10-31T07:11:47;39.20;;;12.80;;
1747;SDS011;871;47.034;15.394;2022-10-31T07:14:13;40.93;;;12.20;;
1747;SDS011;871;47.034;15.394;2022-10-31T07:16:40;41.77;;;13.40;;
1747;SDS011;871;47.034;15.394;2022-10-31T07:19:06;39.30;;;12.27;;
1747;SDS011;871;47.034;15.394;2022-10-31T07:21:33;40.90;;;14.97;;
1747;SDS011;871;47.034;15.394;2022-10-31T07:23:59;46.27;;;16.90;;
1747;SDS011;871;47.034;15.394;2022-10-31T07:26:25;51.57;;;17.87;;
1747;SDS011;871;47.034;15.394;2022-10-31T07:28:52;48.30;;;17.20;;
1747;SDS011;871;47.034;15.394;2022-10-31T07:31:19;52.53;;;18.30;;
1747;SDS011;871;47.034;15.394;2022-10-31T07:33:45;44.83;;;15.70;;
1747;SDS011;871;47.034;15.394;2022-10-31T07:36:11;44.87;;;16.03;;
1747;SDS011;871;47.034;15.394;2022-10-31T07:38:37;41.30;;;14.07;;
1747;SDS011;871;47.034;15.394;2022-10-31T07:41:04;46.83;;;16.67;;
1747;SDS011;871;47.034;15.394;2022-10-31T07:43:30;43.33;;;14.57;;
1747;SDS011;871;47.034;15.394;2022-10-31T07:45:56;46.33;;;16.00;;
1747;SDS011;871;47.034;15.394;2022-10-31T07:48:22;44.17;;;15.27;;
1747;SDS011;871;47.034;15.394;2022-10-31T07:50:48;45.40;;;15.27;;
1747;SDS011;871;47.034;15.394;2022-10-31T07:53:14;45.37;;;15.40;;
1747;SDS011;871;47.034;15.394;2022-10-31T07:55:40;43.47;;;15.67;;
1747;SDS011;871;47.034;15.394;2022-10-31T07:58:16;39.13;;;13.57;;
1747;SDS011;871;47.034;15.394;2022-10-31T08:00:43;42.90;;;13.40;;
1747;SDS011;871;47.034;15.394;2022-10-31T08:03:10;44.97;;;13.70;;
1747;SDS011;871;47.034;15.394;2022-10-31T08:05:37;44.90;;;14.10;;
1747;SDS011;871;47.034;15.394;2022-10-31T08:08:05;42.47;;;12.57;;
1747;SDS011;871;47.034;15.394;2022-10-31T08:10:31;45.40;;;13.00;;
1747;SDS011;871;47.034;15.394;2022-10-31T08:12:58;42.37;;;11.77;;
1747;SDS011;871;47.034;15.394;2022-10-31T08:15:24;45.93;;;13.17;;
1747;SDS011;871;47.034;15.394;2022-10-31T08:17:50;45.90;;;12.60;;
1747;SDS011;871;47.034;15.394;2022-10-31T08:20:16;43.73;;;12.73;;
1747;SDS011;871;47.034;15.394;2022-10-31T08:22:42;50.20;;;13.23;;
1747;SDS011;871;47.034;15.394;2022-10-31T08:25:08;42.23;;;12.53;;
1747;SDS011;871;47.034;15.394;2022-10-31T08:27:34;42.33;;;12.43;;
1747;SDS011;871;47.034;15.394;2022-10-31T08:30:00;42.40;;;11.70;;
1747;SDS011;871;47.034;15.394;2022-10-31T08:32:28;48.33;;;12.70;;
1747;SDS011;871;47.034;15.394;2022-10-31T08:34:54;46.90;;;12.50;;
1747;SDS011;871;47.034;15.394;2022-10-31T08:37:20;55.40;;;13.37;;
1747;SDS011;871;47.034;15.394;2022-10-31T08:39:46;52.30;;;13.33;;
1747;SDS011;871;47.034;15.394;2022-10-31T08:42:13;48.43;;;12.83;;
1747;SDS011;871;47.034;15.394;2022-10-31T08:44:40;43.87;;;10.63;;
1747;SDS011;871;47.034;15.394;2022-10-31T08:47:06;48.63;;;11.20;;
1747;SDS011;871;47.034;15.394;2022-10-31T08:49:32;50.80;;;10.30;;
1747;SDS011;871;47.034;15.394;2022-10-31T08:51:58;50.07;;;9.20;;
1747;SDS011;871;47.034;15.394;2022-10-31T08:54:24;49.97;;;10.57;;
1747;SDS011;871;47.034;15.394;2022-10-31T08:56:53;46.40;;;8.90;;
1747;SDS011;871;47.034;15.394;2022-10-31T08:59:20;50.20;;;9.77;;
1747;SDS011;871;47.034;15.394;2022-10-31T09:01:46;48.97;;;9.20;;
1747;SDS011;871;47.034;15.394;2022-10-31T09:04:12;49.20;;;9.60;;
1747;SDS011;871;47.034;15.394;2022-10-31T09:06:39;46.80;;;8.80;;
1747;SDS011;871;47.034;15.394;2022-10-31T09:09:05;53.03;;;8.63;;
1747;SDS011;871;47.034;15.394;2022-10-31T09:11:31;59.00;;;9.90;;
1747;SDS011;871;47.034;15.394;2022-10-31T09:13:57;49.70;;;7.97;;
1747;SDS011;871;47.034;15.394;2022-10-31T09:16:24;51.80;;;8.23;;
1747;SDS011;871;47.034;15.394;2022-10-31T09:18:50;45.67;;;7.93;;
1747;SDS011;871;47.034;15.394;2022-10-31T09:21:16;47.00;;;7.00;;
1747;SDS011;871;47.034;15.394;2022-10-31T09:23:43;47.87;;;7.93;;
1747;SDS011;871;47.034;15.394;2022-10-31T09:26:09;47.23;;;8.77;;
1747;SDS011;871;47.034;15.394;2022-10-31T09:28:35;47.27;;;8.17;;
1747;SDS011;871;47.034;15.394;2022-10-31T09:31:01;45.43;;;8.07;;
1747;SDS011;871;47.034;15.394;2022-10-31T09:33:27;46.90;;;7.83;;
1747;SDS011;871;47.034;15.394;2022-10-31T09:35:53;48.50;;;8.80;;
1747;SDS011;871;47.034;15.394;2022-10-31T09:38:20;48.50;;;7.87;;
1747;SDS011;871;47.034;15.394;2022-10-31T09:50:55;47.23;;;7.90;;
1747;SDS011;871;47.034;15.394;2022-10-31T09:53:27;46.90;;;7.97;;
1747;SDS011;871;47.034;15.394;2022-10-31T09:55:55;47.80;;;8.77;;
1747;SDS011;871;47.034;15.394;2022-10-31T09:58:28;47.77;;;7.37;;
1747;SDS011;871;47.034;15.394;2022-10-31T10:00:56;48.83;;;7.23;;
1747;SDS011;871;47.034;15.394;2022-10-31T10:03:27;44.67;;;7.13;;
1747;SDS011;871;47.034;15.394;2022-10-31T10:08:20;46.57;;;7.50;;
1747;SDS011;871;47.034;15.394;2022-10-31T10:10:51;50.30;;;8.07;;
1747;SDS011;871;47.034;15.394;2022-10-31T10:15:48;53.73;;;9.47;;
1747;SDS011;871;47.034;15.394;2022-10-31T10:23:34;54.10;;;9.50;;
1747;SDS011;871;47.034;15.394;2022-10-31T10:26:15;47.60;;;7.47;;
1747;SDS011;871;47.034;15.394;2022-10-31T10:28:42;48.00;;;8.10;;
1747;SDS011;871;47.034;15.394;2022-10-31T10:31:26;50.53;;;8.90;;
1747;SDS011;871;47.034;15.394;2022-10-31T10:39:17;47.73;;;7.60;;
1747;SDS011;871;47.034;15.394;2022-10-31T10:41:46;50.47;;;8.77;;
1747;SDS011;871;47.034;15.394;2022-10-31T10:44:33;50.90;;;8.00;;
1747;SDS011;871;47.034;15.394;2022-10-31T10:47:18;52.23;;;7.93;;
1747;SDS011;871;47.034;15.394;2022-10-31T10:50:17;50.87;;;7.60;;
1747;SDS011;871;47.034;15.394;2022-10-31T10:52:50;49.10;;;8.03;;
1747;SDS011;871;47.034;15.394;2022-10-31T11:00:23;49.50;;;9.50;;
1747;SDS011;871;47.034;15.394;2022-10-31T11:02:49;48.40;;;8.07;;
1747;SDS011;871;47.034;15.394;2022-10-31T11:07:50;48.23;;;7.10;;
1747;SDS011;871;47.034;15.394;2022-10-31T11:10:16;49.00;;;7.80;;
1747;SDS011;871;47.034;15.394;2022-10-31T11:12:44;48.03;;;7.27;;
1747;SDS011;871;47.034;15.394;2022-10-31T11:15:18;49.07;;;8.33;;
1747;SDS011;871;47.034;15.394;2022-10-31T11:17:47;45.37;;;7.57;;
1747;SDS011;871;47.034;15.394;2022-10-31T11:22:46;48.93;;;8.30;;
1747;SDS011;871;47.034;15.394;2022-10-31T11:25:23;46.83;;;8.10;;
1747;SDS011;871;47.034;15.394;2022-10-31T11:28:03;46.50;;;6.90;;
1747;SDS011;871;47.034;15.394;2022-10-31T11:30:30;55.47;;;8.00;;
1747;SDS011;871;47.034;15.394;2022-10-31T11:32:57;47.30;;;7.80;;
1747;SDS011;871;47.034;15.394;2022-10-31T11:35:23;48.97;;;8.03;;
1747;SDS011;871;47.034;15.394;2022-10-31T11:37:51;48.30;;;8.03;;
1747;SDS011;871;47.034;15.394;2022-10-31T11:40:22;50.57;;;8.20;;
1747;SDS011;871;47.034;15.394;2022-10-31T11:42:49;46.07;;;7.27;;
1747;SDS011;871;47.034;15.394;2022-10-31T11:45:17;54.43;;;7.77;;
1747;SDS011;871;47.034;15.394;2022-10-31T11:47:46;52.37;;;7.77;;
1747;SDS011;871;47.034;15.394;2022-10-31T11:50:20;48.60;;;8.90;;
1747;SDS011;871;47.034;15.394;2022-10-31T11:52:47;46.80;;;7.70;;
1747;SDS011;871;47.034;15.394;2022-10-31T11:55:16;51.77;;;8.97;;
1747;SDS011;871;47.034;15.394;2022-10-31T11:57:45;54.30;;;8.87;;
1747;SDS011;871;47.034;15.394;2022-10-31T12:00:26;48.53;;;7.90;;
1747;SDS011;871;47.034;15.394;2022-10-31T12:05:38;50.53;;;8.23;;
1747;SDS011;871;47.034;15.394;2022-10-31T12:08:09;47.80;;;7.90;;
1747;SDS011;871;47.034;15.394;2022-10-31T12:10:40;46.33;;;8.00;;
1747;SDS011;871;47.034;15.394;2022-10-31T12:15:43;48.93;;;8.03;;
1747;SDS011;871;47.034;15.394;2022-10-31T12:33:47;48.10;;;7.40;;
1747;SDS011;871;47.034;15.394;2022-10-31T12:41:22;57.63;;;8.90;;
1747;SDS011;871;47.034;15.394;2022-10-31T12:46:29;50.67;;;8.00;;
1747;SDS011;871;47.034;15.394;2022-10-31T12:49:34;46.73;;;7.93;;
1747;SDS011;871;47.034;15.394;2022-10-31T12:52:15;52.00;;;8.40;;
1747;SDS011;871;47.034;15.394;2022-10-31T12:54:49;46.53;;;7.50;;
1747;SDS011;871;47.034;15.394;2022-10-31T12:59:50;48.37;;;9.50;;
1747;SDS011;871;47.034;15.394;2022-10-31T13:04:46;45.17;;;8.13;;
1747;SDS011;871;47.034;15.394;2022-10-31T13:07:15;46.73;;;9.00;;
1747;SDS011;871;47.034;15.394;2022-10-31T13:09:49;44.97;;;7.90;;
1747;SDS011;871;47.034;15.394;2022-10-31T13:12:17;48.93;;;8.63;;
1747;SDS011;871;47.034;15.394;2022-10-31T13:14:46;45.87;;;9.40;;
1747;SDS011;871;47.034;15.394;2022-10-31T13:17:16;44.47;;;7.90;;
1747;SDS011;871;47.034;15.394;2022-10-31T13:19:47;50.17;;;8.63;;
1747;SDS011;871;47.034;15.394;2022-10-31T13:28:17;61.43;;;8.27;;
1747;SDS011;871;47.034;15.394;2022-10-31T13:30:25;47.07;;;8.67;;
1747;SDS011;871;47.034;15.394;2022-10-31T13:35:51;46.93;;;8.70;;
1747;SDS011;871;47.034;15.394;2022-10-31T13:41:09;46.00;;;7.80;;
1747;SDS011;871;47.034;15.394;2022-10-31T13:43:48;46.67;;;8.67;;
1747;SDS011;871;47.034;15.394;2022-10-31T13:46:23;46.57;;;7.70;;
1747;SDS011;871;47.034;15.394;2022-10-31T13:48:50;47.97;;;8.97;;
1747;SDS011;871;47.034;15.394;2022-10-31T13:51:23;44.80;;;8.30;;
1747;SDS011;871;47.034;15.394;2022-10-31T13:56:20;50.10;;;8.60;;
1747;SDS011;871;47.034;15.394;2022-10-31T14:01:32;44.90;;;7.33;;
1747;SDS011;871;47.034;15.394;2022-10-31T14:04:04;46.23;;;8.80;;
1747;SDS011;871;47.034;15.394;2022-10-31T14:06:35;46.17;;;8.50;;
1747;SDS011;871;47.034;15.394;2022-10-31T14:09:02;46.27;;;8.73;;
1747;SDS011;871;47.034;15.394;2022-10-31T14:11:30;47.10;;;8.37;;
1747;SDS011;871;47.034;15.394;2022-10-31T14:13:56;46.00;;;8.60;;
1747;SDS011;871;47.034;15.394;2022-10-31T14:16:26;44.43;;;7.80;;
1747;SDS011;871;47.034;15.394;2022-10-31T14:19:02;45.17;;;8.80;;
1747;SDS011;871;47.034;15.394;2022-10-31T14:21:38;47.67;;;8.63;;
1747;SDS011;871;47.034;15.394;2022-10-31T14:26:50;50.40;;;9.57;;
1747;SDS011;871;47.034;15.394;2022-10-31T14:31:43;44.67;;;8.27;;
1747;SDS011;871;47.034;15.394;2022-10-31T14:36:46;44.47;;;7.47;;
1747;SDS011;871;47.034;15.394;2022-10-31T14:49:38;47.23;;;9.10;;
1747;SDS011;871;47.034;15.394;2022-10-31T14:52:07;44.23;;;8.70;;
1747;SDS011;871;47.034;15.394;2022-10-31T14:54:35;45.50;;;8.37;;
1747;SDS011;871;47.034;15.394;2022-10-31T14:57:05;46.97;;;8.30;;
1747;SDS011;871;47.034;15.394;2022-10-31T14:59:31;46.30;;;8.60;;
1747;SDS011;871;47.034;15.394;2022-10-31T15:01:59;47.23;;;8.30;;
1747;SDS011;871;47.034;15.394;2022-10-31T15:04:29;46.67;;;8.80;;
1747;SDS011;871;47.034;15.394;2022-10-31T15:07:02;44.93;;;8.43;;
1747;SDS011;871;47.034;15.394;2022-10-31T15:09:32;48.50;;;8.50;;
1747;SDS011;871;47.034;15.394;2022-10-31T15:11:59;47.67;;;9.33;;
1747;SDS011;871;47.034;15.394;2022-10-31T15:14:27;46.60;;;9.23;;
1747;SDS011;871;47.034;15.394;2022-10-31T15:16:54;47.80;;;9.87;;
1747;SDS011;871;47.034;15.394;2022-10-31T15:19:22;49.27;;;9.57;;
1747;SDS011;871;47.034;15.394;2022-10-31T15:21:50;46.87;;;9.47;;
1747;SDS011;871;47.034;15.394;2022-10-31T15:24:16;48.20;;;10.17;;
1747;SDS011;871;47.034;15.394;2022-10-31T15:26:47;47.77;;;9.80;;
1747;SDS011;871;47.034;15.394;2022-10-31T15:29:17;47.33;;;10.47;;
1747;SDS011;871;47.034;15.394;2022-10-31T15:31:52;54.67;;;10.20;;
1747;SDS011;871;47.034;15.394;2022-10-31T15:34:20;46.47;;;9.57;;
1747;SDS011;871;47.034;15.394;2022-10-31T15:36:48;47.67;;;10.07;;
1747;SDS011;871;47.034;15.394;2022-10-31T15:39:17;48.83;;;11.20;;
1747;SDS011;871;47.034;15.394;2022-10-31T15:44:34;51.87;;;12.93;;
1747;SDS011;871;47.034;15.394;2022-10-31T15:49:38;54.53;;;12.77;;
1747;SDS011;871;47.034;15.394;2022-10-31T15:54:42;56.57;;;15.37;;
1747;SDS011;871;47.034;15.394;2022-10-31T15:57:10;52.97;;;14.67;;
1747;SDS011;871;47.034;15.394;2022-10-31T15:59:37;53.20;;;14.67;;
1747;SDS011;871;47.034;15.394;2022-10-31T16:02:08;48.77;;;11.20;;
1747;SDS011;871;47.034;15.394;2022-10-31T16:04:35;54.60;;;10.73;;
1747;SDS011;871;47.034;15.394;2022-10-31T16:07:02;51.30;;;12.23;;
1747;SDS011;871;47.034;15.394;2022-10-31T16:09:29;49.87;;;11.50;;
1747;SDS011;871;47.034;15.394;2022-10-31T16:11:56;55.03;;;13.50;;
1747;SDS011;871;47.034;15.394;2022-10-31T16:14:25;49.70;;;11.70;;
1747;SDS011;871;47.034;15.394;2022-10-31T16:16:54;50.33;;;12.70;;
1747;SDS011;871;47.034;15.394;2022-10-31T16:19:34;48.67;;;12.17;;
1747;SDS011;871;47.034;15.394;2022-10-31T16:22:02;48.00;;;12.50;;
1747;SDS011;871;47.034;15.394;2022-10-31T16:24:31;49.90;;;12.50;;
1747;SDS011;871;47.034;15.394;2022-10-31T16:27:01;52.30;;;12.93;;
1747;SDS011;871;47.034;15.394;2022-10-31T16:29:34;52.63;;;12.13;;
1747;SDS011;871;47.034;15.394;2022-10-31T16:32:01;49.47;;;11.90;;
1747;SDS011;871;47.034;15.394;2022-10-31T16:34:28;54.53;;;13.80;;
1747;SDS011;871;47.034;15.394;2022-10-31T16:36:54;52.17;;;13.33;;
1747;SDS011;871;47.034;15.394;2022-10-31T16:39:20;57.00;;;15.47;;
1747;SDS011;871;47.034;15.394;2022-10-31T16:41:47;57.40;;;14.30;;
1747;SDS011;871;47.034;15.394;2022-10-31T16:44:19;50.70;;;15.47;;
1747;SDS011;871;47.034;15.394;2022-10-31T16:46:46;51.83;;;15.40;;
1747;SDS011;871;47.034;15.394;2022-10-31T16:49:13;56.07;;;15.77;;
1747;SDS011;871;47.034;15.394;2022-10-31T16:51:40;52.37;;;14.57;;
1747;SDS011;871;47.034;15.394;2022-10-31T16:54:08;51.23;;;13.73;;
1747;SDS011;871;47.034;15.394;2022-10-31T16:56:35;51.90;;;15.70;;
1747;SDS011;871;47.034;15.394;2022-10-31T16:59:03;52.03;;;14.23;;
1747;SDS011;871;47.034;15.394;2022-10-31T17:01:30;55.20;;;16.80;;
1747;SDS011;871;47.034;15.394;2022-10-31T17:03:56;86.70;;;36.13;;
1747;SDS011;871;47.034;15.394;2022-10-31T17:06:22;77.37;;;31.23;;
1747;SDS011;871;47.034;15.394;2022-10-31T17:08:52;71.27;;;31.20;;
1747;SDS011;871;47.034;15.394;2022-10-31T17:11:19;63.30;;;20.77;;
1747;SDS011;871;47.034;15.394;2022-10-31T17:13:46;56.77;;;16.80;;
1747;SDS011;871;47.034;15.394;2022-10-31T17:16:12;64.70;;;24.83;;
1747;SDS011;871;47.034;15.394;2022-10-31T17:18:42;54.50;;;19.50;;
1747;SDS011;871;47.034;15.394;2022-10-31T17:21:14;51.30;;;15.37;;
1747;SDS011;871;47.034;15.394;2022-10-31T17:23:41;56.00;;;19.40;;
1747;SDS011;871;47.034;15.394;2022-10-31T17:26:09;56.07;;;19.07;;
1747;SDS011;871;47.034;15.394;2022-10-31T17:28:36;57.80;;;24.53;;
1747;SDS011;871;47.034;15.394;2022-10-31T17:31:03;57.87;;;24.50;;
1747;SDS011;871;47.034;15.394;2022-10-31T17:33:29;53.87;;;20.03;;
1747;SDS011;871;47.034;15.394;2022-10-31T17:35:55;55.60;;;21.17;;
1747;SDS011;871;47.034;15.394;2022-10-31T17:38:23;54.53;;;18.30;;
1747;SDS011;871;47.034;15.394;2022-10-31T17:40:49;54.60;;;20.20;;
1747;SDS011;871;47.034;15.394;2022-10-31T17:43:15;58.60;;;22.63;;
1747;SDS011;871;47.034;15.394;2022-10-31T17:45:41;57.03;;;21.53;;
1747;SDS011;871;47.034;15.394;2022-10-31T17:48:09;58.10;;;22.50;;
1747;SDS011;871;47.034;15.394;2022-10-31T17:50:37;64.43;;;22.30;;
1747;SDS011;871;47.034;15.394;2022-10-31T17:53:04;57.37;;;22.30;;
1747;SDS011;871;47.034;15.394;2022-10-31T17:55:31;55.37;;;19.97;;
1747;SDS011;871;47.034;15.394;2022-10-31T17:57:58;54.87;;;20.20;;
1747;SDS011;871;47.034;15.394;2022-10-31T18:00:24;60.73;;;23.07;;
1747;SDS011;871;47.034;15.394;2022-10-31T18:02:51;53.50;;;20.67;;
1747;SDS011;871;47.034;15.394;2022-10-31T18:05:17;57.47;;;20.33;;
1747;SDS011;871;47.034;15.394;2022-10-31T18:07:43;63.07;;;24.77;;
1747;SDS011;871;47.034;15.394;2022-10-31T18:10:09;67.93;;;25.10;;
1747;SDS011;871;47.034;15.394;2022-10-31T18:12:35;64.03;;;24.53;;
1747;SDS011;871;47.034;15.394;2022-10-31T18:15:02;58.33;;;23.10;;
1747;SDS011;871;47.034;15.394;2022-10-31T18:17:29;58.20;;;22.40;;
1747;SDS011;871;47.034;15.394;2022-10-31T18:19:56;57.17;;;22.07;;
1747;SDS011;871;47.034;15.394;2022-10-31T18:22:22;59.03;;;21.50;;
1747;SDS011;871;47.034;15.394;2022-10-31T18:24:48;57.73;;;21.80;;
1747;SDS011;871;47.034;15.394;2022-10-31T18:27:14;54.67;;;20.03;;
1747;SDS011;871;47.034;15.394;2022-10-31T18:29:40;62.30;;;21.20;;
1747;SDS011;871;47.034;15.394;2022-10-31T18:32:08;56.83;;;20.10;;
1747;SDS011;871;47.034;15.394;2022-10-31T18:34:34;60.10;;;20.87;;
1747;SDS011;871;47.034;15.394;2022-10-31T18:37:01;59.87;;;21.23;;
1747;SDS011;871;47.034;15.394;2022-10-31T18:39:28;58.50;;;21.23;;
1747;SDS011;871;47.034;15.394;2022-10-31T18:41:55;61.43;;;22.50;;
1747;SDS011;871;47.034;15.394;2022-10-31T18:44:21;58.00;;;20.00;;
1747;SDS011;871;47.034;15.394;2022-10-31T18:46:47;59.77;;;21.23;;
1747;SDS011;871;47.034;15.394;2022-10-31T18:49:13;56.17;;;19.77;;
1747;SDS011;871;47.034;15.394;2022-10-31T18:51:46;56.97;;;19.20;;
1747;SDS011;871;47.034;15.394;2022-10-31T18:54:12;53.17;;;18.30;;
1747;SDS011;871;47.034;15.394;2022-10-31T18:56:38;57.73;;;20.17;;
1747;SDS011;871;47.034;15.394;2022-10-31T18:59:04;55.23;;;19.40;;
1747;SDS011;871;47.034;15.394;2022-10-31T19:01:30;54.10;;;18.27;;
1747;SDS011;871;47.034;15.394;2022-10-31T19:03:56;58.93;;;20.50;;
1747;SDS011;871;47.034;15.394;2022-10-31T19:06:24;56.00;;;19.70;;
1747;SDS011;871;47.034;15.394;2022-10-31T19:08:55;55.60;;;18.30;;
1747;SDS011;871;47.034;15.394;2022-10-31T19:11:22;56.70;;;19.70;;
1747;SDS011;871;47.034;15.394;2022-10-31T19:13:48;66.33;;;22.13;;
1747;SDS011;871;47.034;15.394;2022-10-31T19:16:14;79.07;;;27.13;;
1747;SDS011;871;47.034;15.394;2022-10-31T19:18:41;93.20;;;24.37;;
1747;SDS011;871;47.034;15.394;2022-10-31T19:21:08;66.77;;;20.80;;
1747;SDS011;871;47.034;15.394;2022-10-31T19:23:35;71.97;;;23.00;;
1747;SDS011;871;47.034;15.394;2022-10-31T19:26:01;97.00;;;24.23;;
1747;SDS011;871;47.034;15.394;2022-10-31T19:28:28;97.63;;;24.10;;
1747;SDS011;871;47.034;15.394;2022-10-31T19:30:55;66.80;;;22.10;;
1747;SDS011;871;47.034;15.394;2022-10-31T19:33:22;88.57;;;25.50;;
1747;SDS011;871;47.034;15.394;2022-10-31T19:36:02;78.63;;;24.93;;
1747;SDS011;871;47.034;15.394;2022-10-31T19:38:29;75.80;;;23.10;;
1747;SDS011;871;47.034;15.394;2022-10-31T19:40:56;85.77;;;23.47;;
1747;SDS011;871;47.034;15.394;2022-10-31T19:43:23;89.10;;;26.17;;
1747;SDS011;871;47.034;15.394;2022-10-31T19:45:53;78.23;;;25.17;;
1747;SDS011;871;47.034;15.394;2022-10-31T19:48:19;68.17;;;22.30;;
1747;SDS011;871;47.034;15.394;2022-10-31T19:50:45;64.00;;;21.10;;
1747;SDS011;871;47.034;15.394;2022-10-31T19:53:11;89.77;;;24.53;;
1747;SDS011;871;47.034;15.394;2022-10-31T19:55:39;65.63;;;20.57;;
1747;SDS011;871;47.034;15.394;2022-10-31T19:58:05;61.30;;;21.70;;
1747;SDS011;871;47.034;15.394;2022-10-31T20:00:31;82.33;;;24.30;;
1747;SDS011;871;47.034;15.394;2022-10-31T20:02:58;74.10;;;21.60;;
1747;SDS011;871;47.034;15.394;2022-10-31T20:05:26;88.33;;;24.60;;
1747;SDS011;871;47.034;15.394;2022-10-31T20:07:52;91.47;;;25.63;;
1747;SDS011;871;47.034;15.394;2022-10-31T20:10:19;91.00;;;27.40;;
1747;SDS011;871;47.034;15.394;2022-10-31T20:12:47;73.27;;;24.73;;
1747;SDS011;871;47.034;15.394;2022-10-31T20:15:13;75.50;;;25.23;;
1747;SDS011;871;47.034;15.394;2022-10-31T20:17:39;79.47;;;23.43;;
1747;SDS011;871;47.034;15.394;2022-10-31T20:20:05;58.93;;;23.67;;
1747;SDS011;871;47.034;15.394;2022-10-31T20:22:36;90.30;;;27.73;;
1747;SDS011;871;47.034;15.394;2022-10-31T20:25:03;74.77;;;24.20;;
1747;SDS011;871;47.034;15.394;2022-10-31T20:27:30;74.73;;;25.47;;
1747;SDS011;871;47.034;15.394;2022-10-31T20:29:56;113.00;;;25.20;;
1747;SDS011;871;47.034;15.394;2022-10-31T20:32:22;79.23;;;20.60;;
1747;SDS011;871;47.034;15.394;2022-10-31T20:34:49;74.03;;;22.17;;
1747;SDS011;871;47.034;15.394;2022-10-31T20:37:15;81.60;;;26.20;;
1747;SDS011;871;47.034;15.394;2022-10-31T20:39:41;87.97;;;23.73;;
1747;SDS011;871;47.034;15.394;2022-10-31T20:42:08;104.83;;;23.97;;
1747;SDS011;871;47.034;15.394;2022-10-31T20:44:36;65.83;;;21.97;;
1747;SDS011;871;47.034;15.394;2022-10-31T20:47:02;62.23;;;20.23;;
1747;SDS011;871;47.034;15.394;2022-10-31T20:49:30;90.90;;;22.30;;
1747;SDS011;871;47.034;15.394;2022-10-31T20:51:58;76.57;;;27.53;;
1747;SDS011;871;47.034;15.394;2022-10-31T20:54:24;88.93;;;31.90;;
1747;SDS011;871;47.034;15.394;2022-10-31T20:56:50;87.13;;;26.60;;
1747;SDS011;871;47.034;15.394;2022-10-31T20:59:16;73.93;;;27.53;;
1747;SDS011;871;47.034;15.394;2022-10-31T21:01:43;76.60;;;25.60;;
1747;SDS011;871;47.034;15.394;2022-10-31T21:04:11;67.63;;;22.20;;
1747;SDS011;871;47.034;15.394;2022-10-31T21:06:37;72.40;;;22.27;;
1747;SDS011;871;47.034;15.394;2022-10-31T21:09:04;78.40;;;24.93;;
1747;SDS011;871;47.034;15.394;2022-10-31T21:11:30;76.00;;;21.73;;
1747;SDS011;871;47.034;15.394;2022-10-31T21:13:57;88.50;;;26.47;;
1747;SDS011;871;47.034;15.394;2022-10-31T21:16:30;63.17;;;21.67;;
1747;SDS011;871;47.034;15.394;2022-10-31T21:18:58;71.97;;;23.33;;
1747;SDS011;871;47.034;15.394;2022-10-31T21:21:26;83.80;;;24.23;;
1747;SDS011;871;47.034;15.394;2022-10-31T21:23:53;66.23;;;21.90;;
1747;SDS011;871;47.034;15.394;2022-10-31T21:26:20;62.03;;;20.57;;
1747;SDS011;871;47.034;15.394;2022-10-31T21:28:46;71.17;;;20.40;;
1747;SDS011;871;47.034;15.394;2022-10-31T21:31:14;57.70;;;20.20;;
1747;SDS011;871;47.034;15.394;2022-10-31T21:33:40;81.17;;;21.57;;
1747;SDS011;871;47.034;15.394;2022-10-31T21:36:07;77.07;;;22.03;;
1747;SDS011;871;47.034;15.394;2022-10-31T21:38:33;74.17;;;22.00;;
1747;SDS011;871;47.034;15.394;2022-10-31T21:41:00;65.47;;;22.33;;
1747;SDS011;871;47.034;15.394;2022-10-31T21:43:27;70.00;;;23.70;;
1747;SDS011;871;47.034;15.394;2022-10-31T21:45:53;74.83;;;22.77;;
1747;SDS011;871;47.034;15.394;2022-10-31T21:48:19;63.77;;;20.57;;
1747;SDS011;871;47.034;15.394;2022-10-31T21:50:45;83.20;;;22.27;;